sensor_id;sensor_type;location;lat;lon;timestamp;temperature;humidity
23087;DHT22;11712;51.134;4.156;2023-04-19T00:01:10;10.00;99.90
23087;DHT22;11712;51.134;4.156;2023-04-19T00:03:36;9.90;99.90
23087;DHT22;11712;51.134;4.156;2023-04-19T00:06:02;9.90;99.90
23087;DHT22;11712;51.134;4.156;2023-04-19T00:08:27;9.90;99.90
23087;DHT22;11712;51.134;4.156;2023-04-19T00:10:53;9.80;99.90
23087;DHT22;11712;51.134;4.156;2023-04-19T00:13:18;9.90;99.90
23087;DHT22;11712;51.134;4.156;2023-04-19T00:15:44;9.80;99.90
23087;DHT22;11712;51.134;4.156;2023-04-19T00:18:10;9.70;99.90
23087;DHT22;11712;51.134;4.156;2023-04-19T00:20:37;9.70;99.90
23087;DHT22;11712;51.134;4.156;2023-04-19T00:23:02;9.70;99.90
23087;DHT22;11712;51.134;4.156;2023-04-19T00:25:28;9.70;99.90
23087;DHT22;11712;51.134;4.156;2023-04-19T00:27:55;9.70;99.90
23087;DHT22;11712;51.134;4.156;2023-04-19T00:30:20;9.70;99.90
23087;DHT22;11712;51.134;4.156;2023-04-19T00:32:46;9.70;99.90
23087;DHT22;11712;51.134;4.156;2023-04-19T00:35:11;9.70;99.90
23087;DHT22;11712;51.134;4.156;2023-04-19T00:37:37;9.70;99.90
23087;DHT22;11712;51.134;4.156;2023-04-19T00:40:03;9.70;99.90
23087;DHT22;11712;51.134;4.156;2023-04-19T00:42:29;9.70;99.90
23087;DHT22;11712;51.134;4.156;2023-04-19T00:44:55;9.60;99.90
23087;DHT22;11712;51.134;4.156;2023-04-19T00:47:20;9.60;99.90
23087;DHT22;11712;51.134;4.156;2023-04-19T00:49:46;9.50;99.90
23087;DHT22;11712;51.134;4.156;2023-04-19T00:52:11;9.60;99.90
23087;DHT22;11712;51.134;4.156;2023-04-19T00:54:37;9.50;99.90
23087;DHT22;11712;51.134;4.156;2023-04-19T00:57:05;9.60;99.90
23087;DHT22;11712;51.134;4.156;2023-04-19T00:59:31;9.50;99.90
23087;DHT22;11712;51.134;4.156;2023-04-19T01:01:57;9.50;99.90
23087;DHT22;11712;51.134;4.156;2023-04-19T01:04:22;9.50;99.90
23087;DHT22;11712;51.134;4.156;2023-04-19T01:06:48;9.40;99.90
23087;DHT22;11712;51.134;4.156;2023-04-19T01:09:14;9.40;99.90
23087;DHT22;11712;51.134;4.156;2023-04-19T01:11:40;9.30;99.90
23087;DHT22;11712;51.134;4.156;2023-04-19T01:14:05;9.40;99.90
23087;DHT22;11712;51.134;4.156;2023-04-19T01:16:31;9.30;99.90
23087;DHT22;11712;51.134;4.156;2023-04-19T01:18:57;9.40;99.90
23087;DHT22;11712;51.134;4.156;2023-04-19T01:21:23;9.30;99.90
23087;DHT22;11712;51.134;4.156;2023-04-19T01:23:48;9.30;99.90
23087;DHT22;11712;51.134;4.156;2023-04-19T01:26:14;9.30;99.90
23087;DHT22;11712;51.134;4.156;2023-04-19T01:28:40;9.30;99.90
23087;DHT22;11712;51.134;4.156;2023-04-19T01:31:06;9.30;99.90
23087;DHT22;11712;51.134;4.156;2023-04-19T01:33:31;9.30;99.90
23087;DHT22;11712;51.134;4.156;2023-04-19T01:35:57;9.30;99.90
23087;DHT22;11712;51.134;4.156;2023-04-19T01:38:22;9.30;99.90
23087;DHT22;11712;51.134;4.156;2023-04-19T01:40:48;9.30;99.90
23087;DHT22;11712;51.134;4.156;2023-04-19T01:43:15;9.30;99.90
23087;DHT22;11712;51.134;4.156;2023-04-19T01:45:40;9.30;99.90
23087;DHT22;11712;51.134;4.156;2023-04-19T01:48:06;9.30;99.90
23087;DHT22;11712;51.134;4.156;2023-04-19T01:50:31;9.20;99.90
23087;DHT22;11712;51.134;4.156;2023-04-19T01:52:57;9.20;99.90
23087;DHT22;11712;51.134;4.156;2023-04-19T01:55:23;9.20;99.90
23087;DHT22;11712;51.134;4.156;2023-04-19T01:57:48;9.20;99.90
23087;DHT22;11712;51.134;4.156;2023-04-19T02:00:14;9.10;99.90
23087;DHT22;11712;51.134;4.156;2023-04-19T02:02:42;9.20;99.90
23087;DHT22;11712;51.134;4.156;2023-04-19T02:05:08;9.20;99.90
23087;DHT22;11712;51.134;4.156;2023-04-19T02:07:33;9.20;99.90
23087;DHT22;11712;51.134;4.156;2023-04-19T02:09:59;9.20;99.90
23087;DHT22;11712;51.134;4.156;2023-04-19T02:12:28;9.10;99.90
23087;DHT22;11712;51.134;4.156;2023-04-19T02:14:55;9.10;99.90
23087;DHT22;11712;51.134;4.156;2023-04-19T02:17:24;9.20;99.90
23087;DHT22;11712;51.134;4.156;2023-04-19T02:19:50;9.30;99.90
23087;DHT22;11712;51.134;4.156;2023-04-19T02:22:16;9.30;99.90
23087;DHT22;11712;51.134;4.156;2023-04-19T02:24:41;9.40;99.90
23087;DHT22;11712;51.134;4.156;2023-04-19T02:27:07;9.40;99.90
23087;DHT22;11712;51.134;4.156;2023-04-19T02:29:32;9.50;99.90
23087;DHT22;11712;51.134;4.156;2023-04-19T02:31:58;9.60;99.90
23087;DHT22;11712;51.134;4.156;2023-04-19T02:34:23;9.60;99.90
23087;DHT22;11712;51.134;4.156;2023-04-19T02:36:49;9.70;99.90
23087;DHT22;11712;51.134;4.156;2023-04-19T02:39:15;9.70;99.90
23087;DHT22;11712;51.134;4.156;2023-04-19T02:41:41;9.70;99.90
23087;DHT22;11712;51.134;4.156;2023-04-19T02:44:07;9.80;99.90
23087;DHT22;11712;51.134;4.156;2023-04-19T02:46:33;9.90;99.90
23087;DHT22;11712;51.134;4.156;2023-04-19T02:49:01;9.90;99.90
23087;DHT22;11712;51.134;4.156;2023-04-19T02:51:27;9.90;99.90
23087;DHT22;11712;51.134;4.156;2023-04-19T02:53:52;10.00;99.90
23087;DHT22;11712;51.134;4.156;2023-04-19T02:56:18;10.00;99.90
23087;DHT22;11712;51.134;4.156;2023-04-19T02:58:44;10.00;99.90
23087;DHT22;11712;51.134;4.156;2023-04-19T03:01:09;10.10;99.90
23087;DHT22;11712;51.134;4.156;2023-04-19T03:03:35;10.10;99.90
23087;DHT22;11712;51.134;4.156;2023-04-19T03:06:01;10.10;99.90
23087;DHT22;11712;51.134;4.156;2023-04-19T03:08:26;10.20;99.90
23087;DHT22;11712;51.134;4.156;2023-04-19T03:10:52;10.20;99.90
23087;DHT22;11712;51.134;4.156;2023-04-19T03:13:17;10.20;99.90
23087;DHT22;11712;51.134;4.156;2023-04-19T03:15:43;10.20;99.90
23087;DHT22;11712;51.134;4.156;2023-04-19T03:18:08;10.20;99.90
23087;DHT22;11712;51.134;4.156;2023-04-19T03:20:34;10.20;99.90
23087;DHT22;11712;51.134;4.156;2023-04-19T03:23:00;10.30;99.90
23087;DHT22;11712;51.134;4.156;2023-04-19T03:25:25;10.30;99.90
23087;DHT22;11712;51.134;4.156;2023-04-19T03:27:51;10.20;99.90
23087;DHT22;11712;51.134;4.156;2023-04-19T03:30:16;10.20;99.90
23087;DHT22;11712;51.134;4.156;2023-04-19T03:32:42;10.30;99.90
23087;DHT22;11712;51.134;4.156;2023-04-19T03:35:08;10.30;99.90
23087;DHT22;11712;51.134;4.156;2023-04-19T03:37:34;10.30;99.90
23087;DHT22;11712;51.134;4.156;2023-04-19T03:39:59;10.30;99.90
23087;DHT22;11712;51.134;4.156;2023-04-19T03:42:25;10.30;99.90
23087;DHT22;11712;51.134;4.156;2023-04-19T03:44:51;10.30;99.90
23087;DHT22;11712;51.134;4.156;2023-04-19T03:47:16;10.40;99.90
23087;DHT22;11712;51.134;4.156;2023-04-19T03:49:42;10.40;99.90
23087;DHT22;11712;51.134;4.156;2023-04-19T03:52:07;10.40;99.90
23087;DHT22;11712;51.134;4.156;2023-04-19T03:54:33;10.40;99.90
23087;DHT22;11712;51.134;4.156;2023-04-19T03:56:59;10.40;99.90
23087;DHT22;11712;51.134;4.156;2023-04-19T03:59:24;10.40;99.90
23087;DHT22;11712;51.134;4.156;2023-04-19T04:01:50;10.40;99.90
23087;DHT22;11712;51.134;4.156;2023-04-19T04:04:15;10.40;99.90
23087;DHT22;11712;51.134;4.156;2023-04-19T04:06:41;10.50;99.90
23087;DHT22;11712;51.134;4.156;2023-04-19T04:09:06;10.50;99.90
23087;DHT22;11712;51.134;4.156;2023-04-19T04:11:32;10.50;99.90
23087;DHT22;11712;51.134;4.156;2023-04-19T04:13:57;10.50;99.90
23087;DHT22;11712;51.134;4.156;2023-04-19T04:16:23;10.60;99.90
23087;DHT22;11712;51.134;4.156;2023-04-19T04:18:49;10.60;99.90
23087;DHT22;11712;51.134;4.156;2023-04-19T04:21:14;10.60;99.90
23087;DHT22;11712;51.134;4.156;2023-04-19T04:23:40;10.60;99.90
23087;DHT22;11712;51.134;4.156;2023-04-19T04:26:06;10.60;99.90
23087;DHT22;11712;51.134;4.156;2023-04-19T04:28:34;10.60;99.90
23087;DHT22;11712;51.134;4.156;2023-04-19T04:31:00;10.60;99.90
23087;DHT22;11712;51.134;4.156;2023-04-19T04:33:26;10.70;99.90
23087;DHT22;11712;51.134;4.156;2023-04-19T04:35:54;10.70;99.90
23087;DHT22;11712;51.134;4.156;2023-04-19T04:38:21;10.70;99.90
23087;DHT22;11712;51.134;4.156;2023-04-19T04:40:50;10.70;99.90
23087;DHT22;11712;51.134;4.156;2023-04-19T04:43:18;10.80;99.90
23087;DHT22;11712;51.134;4.156;2023-04-19T04:45:45;10.80;99.90
23087;DHT22;11712;51.134;4.156;2023-04-19T04:48:10;10.80;99.90
23087;DHT22;11712;51.134;4.156;2023-04-19T04:50:36;10.60;99.90
23087;DHT22;11712;51.134;4.156;2023-04-19T04:53:02;10.60;99.90
23087;DHT22;11712;51.134;4.156;2023-04-19T04:55:27;10.60;99.90
23087;DHT22;11712;51.134;4.156;2023-04-19T04:57:52;10.50;99.90
23087;DHT22;11712;51.134;4.156;2023-04-19T05:00:18;10.50;99.90
23087;DHT22;11712;51.134;4.156;2023-04-19T05:02:44;10.40;99.90
23087;DHT22;11712;51.134;4.156;2023-04-19T05:05:09;10.40;99.90
23087;DHT22;11712;51.134;4.156;2023-04-19T05:07:38;10.40;99.90
23087;DHT22;11712;51.134;4.156;2023-04-19T05:10:04;10.40;99.90
23087;DHT22;11712;51.134;4.156;2023-04-19T05:12:29;10.40;99.90
23087;DHT22;11712;51.134;4.156;2023-04-19T05:14:55;10.30;99.90
23087;DHT22;11712;51.134;4.156;2023-04-19T05:17:20;10.40;99.90
23087;DHT22;11712;51.134;4.156;2023-04-19T05:19:46;10.30;99.90
23087;DHT22;11712;51.134;4.156;2023-04-19T05:22:12;10.40;99.90
23087;DHT22;11712;51.134;4.156;2023-04-19T05:24:37;10.40;99.90
23087;DHT22;11712;51.134;4.156;2023-04-19T05:27:03;10.50;99.90
23087;DHT22;11712;51.134;4.156;2023-04-19T05:29:28;10.40;99.90
23087;DHT22;11712;51.134;4.156;2023-04-19T05:31:54;10.50;99.90
23087;DHT22;11712;51.134;4.156;2023-04-19T05:34:19;10.50;99.90
23087;DHT22;11712;51.134;4.156;2023-04-19T05:36:45;10.60;99.90
23087;DHT22;11712;51.134;4.156;2023-04-19T05:39:11;10.60;99.90
23087;DHT22;11712;51.134;4.156;2023-04-19T05:41:36;10.60;99.90
23087;DHT22;11712;51.134;4.156;2023-04-19T05:44:02;10.60;99.90
23087;DHT22;11712;51.134;4.156;2023-04-19T05:46:27;10.70;99.90
23087;DHT22;11712;51.134;4.156;2023-04-19T05:48:53;10.70;99.90
23087;DHT22;11712;51.134;4.156;2023-04-19T05:51:18;10.70;99.90
23087;DHT22;11712;51.134;4.156;2023-04-19T05:53:44;10.70;99.90
23087;DHT22;11712;51.134;4.156;2023-04-19T05:56:10;10.70;99.90
23087;DHT22;11712;51.134;4.156;2023-04-19T05:58:36;10.70;99.90
23087;DHT22;11712;51.134;4.156;2023-04-19T06:01:04;10.80;99.90
23087;DHT22;11712;51.134;4.156;2023-04-19T06:03:31;10.80;99.90
23087;DHT22;11712;51.134;4.156;2023-04-19T06:05:57;10.80;99.90
23087;DHT22;11712;51.134;4.156;2023-04-19T06:08:23;10.80;99.90
23087;DHT22;11712;51.134;4.156;2023-04-19T06:10:48;10.80;99.90
23087;DHT22;11712;51.134;4.156;2023-04-19T06:13:14;10.80;99.90
23087;DHT22;11712;51.134;4.156;2023-04-19T06:15:40;10.90;99.90
23087;DHT22;11712;51.134;4.156;2023-04-19T06:18:06;10.90;99.90
23087;DHT22;11712;51.134;4.156;2023-04-19T06:20:38;10.90;99.90
23087;DHT22;11712;51.134;4.156;2023-04-19T06:23:04;11.00;99.90
23087;DHT22;11712;51.134;4.156;2023-04-19T06:25:30;11.00;99.90
23087;DHT22;11712;51.134;4.156;2023-04-19T06:27:55;11.10;99.90
23087;DHT22;11712;51.134;4.156;2023-04-19T06:30:21;11.10;99.90
23087;DHT22;11712;51.134;4.156;2023-04-19T06:32:46;11.10;99.90
23087;DHT22;11712;51.134;4.156;2023-04-19T06:35:12;11.20;99.90
23087;DHT22;11712;51.134;4.156;2023-04-19T06:37:38;11.20;99.90
23087;DHT22;11712;51.134;4.156;2023-04-19T06:40:03;11.20;99.90
23087;DHT22;11712;51.134;4.156;2023-04-19T06:42:31;11.30;99.90
23087;DHT22;11712;51.134;4.156;2023-04-19T06:44:56;11.40;99.90
23087;DHT22;11712;51.134;4.156;2023-04-19T06:47:22;11.40;99.90
23087;DHT22;11712;51.134;4.156;2023-04-19T06:49:47;11.50;99.90
23087;DHT22;11712;51.134;4.156;2023-04-19T06:52:13;11.50;99.90
23087;DHT22;11712;51.134;4.156;2023-04-19T06:54:38;11.70;99.90
23087;DHT22;11712;51.134;4.156;2023-04-19T06:57:04;11.90;99.90
23087;DHT22;11712;51.134;4.156;2023-04-19T06:59:29;12.00;99.90
23087;DHT22;11712;51.134;4.156;2023-04-19T07:01:56;12.10;99.90
23087;DHT22;11712;51.134;4.156;2023-04-19T07:04:24;12.00;99.90
23087;DHT22;11712;51.134;4.156;2023-04-19T07:06:50;12.00;99.90
23087;DHT22;11712;51.134;4.156;2023-04-19T07:09:15;12.10;99.90
23087;DHT22;11712;51.134;4.156;2023-04-19T07:11:41;12.30;99.90
23087;DHT22;11712;51.134;4.156;2023-04-19T07:14:06;12.30;99.90
23087;DHT22;11712;51.134;4.156;2023-04-19T07:16:32;12.40;99.90
23087;DHT22;11712;51.134;4.156;2023-04-19T07:18:57;12.50;99.90
23087;DHT22;11712;51.134;4.156;2023-04-19T07:21:23;12.50;99.90
23087;DHT22;11712;51.134;4.156;2023-04-19T07:23:51;12.60;99.90
23087;DHT22;11712;51.134;4.156;2023-04-19T07:26:16;12.50;99.90
23087;DHT22;11712;51.134;4.156;2023-04-19T07:28:42;12.50;99.90
23087;DHT22;11712;51.134;4.156;2023-04-19T07:31:13;12.50;99.90
23087;DHT22;11712;51.134;4.156;2023-04-19T07:33:38;12.40;99.90
23087;DHT22;11712;51.134;4.156;2023-04-19T07:36:04;12.40;99.90
23087;DHT22;11712;51.134;4.156;2023-04-19T07:38:30;12.50;99.90
23087;DHT22;11712;51.134;4.156;2023-04-19T07:40:56;12.70;99.90
23087;DHT22;11712;51.134;4.156;2023-04-19T07:43:21;12.70;99.90
23087;DHT22;11712;51.134;4.156;2023-04-19T07:45:47;12.70;99.90
23087;DHT22;11712;51.134;4.156;2023-04-19T07:48:12;12.60;99.90
23087;DHT22;11712;51.134;4.156;2023-04-19T07:50:38;12.60;99.90
23087;DHT22;11712;51.134;4.156;2023-04-19T07:53:04;12.60;99.90
23087;DHT22;11712;51.134;4.156;2023-04-19T07:55:29;12.50;99.90
23087;DHT22;11712;51.134;4.156;2023-04-19T07:57:55;12.50;99.90
23087;DHT22;11712;51.134;4.156;2023-04-19T08:00:20;12.50;99.90
23087;DHT22;11712;51.134;4.156;2023-04-19T08:02:46;12.60;99.90
23087;DHT22;11712;51.134;4.156;2023-04-19T08:05:13;12.70;99.90
23087;DHT22;11712;51.134;4.156;2023-04-19T08:07:38;12.90;99.90
23087;DHT22;11712;51.134;4.156;2023-04-19T08:10:08;12.80;99.90
23087;DHT22;11712;51.134;4.156;2023-04-19T08:12:33;13.00;99.90
23087;DHT22;11712;51.134;4.156;2023-04-19T08:14:59;12.90;99.90
23087;DHT22;11712;51.134;4.156;2023-04-19T08:17:25;13.00;99.90
23087;DHT22;11712;51.134;4.156;2023-04-19T08:19:51;13.10;99.90
23087;DHT22;11712;51.134;4.156;2023-04-19T08:22:16;13.10;99.90
23087;DHT22;11712;51.134;4.156;2023-04-19T08:24:42;13.10;99.90
23087;DHT22;11712;51.134;4.156;2023-04-19T08:27:11;13.10;99.90
23087;DHT22;11712;51.134;4.156;2023-04-19T08:29:36;13.20;99.90
23087;DHT22;11712;51.134;4.156;2023-04-19T08:32:05;13.30;99.90
23087;DHT22;11712;51.134;4.156;2023-04-19T08:34:33;13.30;99.90
23087;DHT22;11712;51.134;4.156;2023-04-19T08:36:59;13.30;99.90
23087;DHT22;11712;51.134;4.156;2023-04-19T08:39:25;13.50;99.90
23087;DHT22;11712;51.134;4.156;2023-04-19T08:41:50;13.40;99.90
23087;DHT22;11712;51.134;4.156;2023-04-19T08:44:16;13.50;99.90
23087;DHT22;11712;51.134;4.156;2023-04-19T08:46:42;13.70;99.90
23087;DHT22;11712;51.134;4.156;2023-04-19T08:49:08;13.80;99.90
23087;DHT22;11712;51.134;4.156;2023-04-19T08:51:34;13.70;99.90
23087;DHT22;11712;51.134;4.156;2023-04-19T08:54:03;13.80;99.90
23087;DHT22;11712;51.134;4.156;2023-04-19T08:56:29;14.00;99.90
23087;DHT22;11712;51.134;4.156;2023-04-19T08:58:55;13.80;99.90
23087;DHT22;11712;51.134;4.156;2023-04-19T09:01:20;13.80;99.90
23087;DHT22;11712;51.134;4.156;2023-04-19T09:03:46;13.70;99.90
23087;DHT22;11712;51.134;4.156;2023-04-19T09:06:12;13.90;99.90
23087;DHT22;11712;51.134;4.156;2023-04-19T09:08:38;14.10;99.90
23087;DHT22;11712;51.134;4.156;2023-04-19T09:11:03;14.00;99.90
23087;DHT22;11712;51.134;4.156;2023-04-19T09:13:29;14.10;99.90
23087;DHT22;11712;51.134;4.156;2023-04-19T09:15:55;14.00;99.90
23087;DHT22;11712;51.134;4.156;2023-04-19T09:18:21;14.20;99.90
23087;DHT22;11712;51.134;4.156;2023-04-19T09:20:47;14.10;99.90
23087;DHT22;11712;51.134;4.156;2023-04-19T09:23:14;14.20;99.90
23087;DHT22;11712;51.134;4.156;2023-04-19T09:25:50;14.30;99.90
23087;DHT22;11712;51.134;4.156;2023-04-19T09:28:16;14.40;99.90
23087;DHT22;11712;51.134;4.156;2023-04-19T09:30:41;14.50;99.90
23087;DHT22;11712;51.134;4.156;2023-04-19T09:33:07;14.30;99.90
23087;DHT22;11712;51.134;4.156;2023-04-19T09:35:42;14.30;99.90
23087;DHT22;11712;51.134;4.156;2023-04-19T09:38:11;14.40;99.90
23087;DHT22;11712;51.134;4.156;2023-04-19T09:40:38;14.30;99.90
23087;DHT22;11712;51.134;4.156;2023-04-19T09:43:04;14.30;99.90
23087;DHT22;11712;51.134;4.156;2023-04-19T09:45:42;14.40;99.90
23087;DHT22;11712;51.134;4.156;2023-04-19T09:48:08;14.50;99.90
23087;DHT22;11712;51.134;4.156;2023-04-19T09:50:34;14.60;99.90
23087;DHT22;11712;51.134;4.156;2023-04-19T09:53:00;14.80;99.90
23087;DHT22;11712;51.134;4.156;2023-04-19T09:55:26;15.00;99.90
23087;DHT22;11712;51.134;4.156;2023-04-19T09:57:52;14.90;99.90
23087;DHT22;11712;51.134;4.156;2023-04-19T10:00:17;14.90;99.90
23087;DHT22;11712;51.134;4.156;2023-04-19T10:02:43;15.10;99.90
23087;DHT22;11712;51.134;4.156;2023-04-19T10:05:09;14.90;99.90
23087;DHT22;11712;51.134;4.156;2023-04-19T10:07:35;15.00;99.90
23087;DHT22;11712;51.134;4.156;2023-04-19T10:10:01;14.80;99.90
23087;DHT22;11712;51.134;4.156;2023-04-19T10:12:27;14.90;99.90
23087;DHT22;11712;51.134;4.156;2023-04-19T10:14:53;15.10;99.90
23087;DHT22;11712;51.134;4.156;2023-04-19T10:17:19;15.00;99.90
23087;DHT22;11712;51.134;4.156;2023-04-19T10:19:45;14.90;99.90
23087;DHT22;11712;51.134;4.156;2023-04-19T10:22:11;15.20;99.90
23087;DHT22;11712;51.134;4.156;2023-04-19T10:24:38;15.30;99.90
23087;DHT22;11712;51.134;4.156;2023-04-19T10:27:04;15.40;99.90
23087;DHT22;11712;51.134;4.156;2023-04-19T10:32:16;15.40;99.90
23087;DHT22;11712;51.134;4.156;2023-04-19T10:34:41;15.40;99.90
23087;DHT22;11712;51.134;4.156;2023-04-19T10:37:10;15.10;99.90
23087;DHT22;11712;51.134;4.156;2023-04-19T10:39:39;15.10;99.90
23087;DHT22;11712;51.134;4.156;2023-04-19T10:42:05;15.40;99.90
23087;DHT22;11712;51.134;4.156;2023-04-19T10:44:31;15.30;99.90
23087;DHT22;11712;51.134;4.156;2023-04-19T10:46:59;15.20;99.90
23087;DHT22;11712;51.134;4.156;2023-04-19T10:49:26;15.30;99.90
23087;DHT22;11712;51.134;4.156;2023-04-19T10:51:52;15.40;99.90
23087;DHT22;11712;51.134;4.156;2023-04-19T10:54:29;15.20;99.90
23087;DHT22;11712;51.134;4.156;2023-04-19T10:57:02;15.30;99.90
23087;DHT22;11712;51.134;4.156;2023-04-19T10:59:32;15.50;99.90
23087;DHT22;11712;51.134;4.156;2023-04-19T11:01:59;15.80;99.90
23087;DHT22;11712;51.134;4.156;2023-04-19T11:07:03;15.80;99.90
23087;DHT22;11712;51.134;4.156;2023-04-19T11:09:36;15.80;99.90
23087;DHT22;11712;51.134;4.156;2023-04-19T11:12:06;15.70;99.90
23087;DHT22;11712;51.134;4.156;2023-04-19T11:14:37;15.50;99.90
23087;DHT22;11712;51.134;4.156;2023-04-19T11:17:12;15.60;99.90
23087;DHT22;11712;51.134;4.156;2023-04-19T11:19:41;15.60;99.90
23087;DHT22;11712;51.134;4.156;2023-04-19T11:22:06;15.70;99.90
23087;DHT22;11712;51.134;4.156;2023-04-19T11:24:33;15.80;99.90
23087;DHT22;11712;51.134;4.156;2023-04-19T11:26:59;15.70;99.90
23087;DHT22;11712;51.134;4.156;2023-04-19T11:29:24;15.40;99.90
23087;DHT22;11712;51.134;4.156;2023-04-19T11:31:50;15.50;99.90
23087;DHT22;11712;51.134;4.156;2023-04-19T11:34:15;15.50;99.90
23087;DHT22;11712;51.134;4.156;2023-04-19T11:36:48;15.70;99.90
23087;DHT22;11712;51.134;4.156;2023-04-19T11:39:13;16.00;99.90
23087;DHT22;11712;51.134;4.156;2023-04-19T11:41:39;16.10;99.90
23087;DHT22;11712;51.134;4.156;2023-04-19T11:44:14;15.90;99.90
23087;DHT22;11712;51.134;4.156;2023-04-19T11:46:39;16.00;99.90
23087;DHT22;11712;51.134;4.156;2023-04-19T11:49:05;15.90;99.90
23087;DHT22;11712;51.134;4.156;2023-04-19T11:51:31;16.00;99.90
23087;DHT22;11712;51.134;4.156;2023-04-19T11:53:57;16.00;99.90
23087;DHT22;11712;51.134;4.156;2023-04-19T11:56:22;16.30;99.90
23087;DHT22;11712;51.134;4.156;2023-04-19T11:58:48;16.00;99.90
23087;DHT22;11712;51.134;4.156;2023-04-19T12:01:20;16.00;99.90
23087;DHT22;11712;51.134;4.156;2023-04-19T12:03:46;16.40;99.90
23087;DHT22;11712;51.134;4.156;2023-04-19T12:06:13;16.40;99.90
23087;DHT22;11712;51.134;4.156;2023-04-19T12:08:43;16.20;99.90
23087;DHT22;11712;51.134;4.156;2023-04-19T12:11:08;16.00;99.90
23087;DHT22;11712;51.134;4.156;2023-04-19T12:13:34;15.80;99.90
23087;DHT22;11712;51.134;4.156;2023-04-19T12:16:00;15.90;99.90
23087;DHT22;11712;51.134;4.156;2023-04-19T12:18:26;16.00;99.90
23087;DHT22;11712;51.134;4.156;2023-04-19T12:20:52;16.00;99.90
23087;DHT22;11712;51.134;4.156;2023-04-19T12:23:18;15.90;99.90
23087;DHT22;11712;51.134;4.156;2023-04-19T12:25:45;15.90;99.90
23087;DHT22;11712;51.134;4.156;2023-04-19T12:28:11;16.10;99.90
23087;DHT22;11712;51.134;4.156;2023-04-19T12:30:37;16.10;99.90
23087;DHT22;11712;51.134;4.156;2023-04-19T12:33:03;16.10;99.90
23087;DHT22;11712;51.134;4.156;2023-04-19T12:35:29;15.80;99.90
23087;DHT22;11712;51.134;4.156;2023-04-19T12:37:55;15.90;99.90
23087;DHT22;11712;51.134;4.156;2023-04-19T12:40:22;16.00;99.90
23087;DHT22;11712;51.134;4.156;2023-04-19T12:42:47;16.20;99.90
23087;DHT22;11712;51.134;4.156;2023-04-19T12:45:13;16.20;99.90
23087;DHT22;11712;51.134;4.156;2023-04-19T12:47:39;15.90;99.90
23087;DHT22;11712;51.134;4.156;2023-04-19T12:50:06;15.90;99.90
23087;DHT22;11712;51.134;4.156;2023-04-19T12:52:31;16.10;99.90
23087;DHT22;11712;51.134;4.156;2023-04-19T12:54:57;15.90;99.90
23087;DHT22;11712;51.134;4.156;2023-04-19T12:57:22;16.00;99.90
23087;DHT22;11712;51.134;4.156;2023-04-19T12:59:48;16.10;99.90
23087;DHT22;11712;51.134;4.156;2023-04-19T13:02:14;16.00;99.90
23087;DHT22;11712;51.134;4.156;2023-04-19T13:04:39;16.00;99.90
23087;DHT22;11712;51.134;4.156;2023-04-19T13:07:05;15.70;99.90
23087;DHT22;11712;51.134;4.156;2023-04-19T13:09:30;15.90;99.90
23087;DHT22;11712;51.134;4.156;2023-04-19T13:11:56;16.00;99.90
23087;DHT22;11712;51.134;4.156;2023-04-19T13:14:22;16.10;99.90
23087;DHT22;11712;51.134;4.156;2023-04-19T13:16:48;16.00;99.90
23087;DHT22;11712;51.134;4.156;2023-04-19T13:19:14;16.20;99.90
23087;DHT22;11712;51.134;4.156;2023-04-19T13:21:40;16.30;99.90
23087;DHT22;11712;51.134;4.156;2023-04-19T13:24:06;16.20;99.90
23087;DHT22;11712;51.134;4.156;2023-04-19T13:26:31;16.00;99.90
23087;DHT22;11712;51.134;4.156;2023-04-19T13:28:58;16.10;99.90
23087;DHT22;11712;51.134;4.156;2023-04-19T13:31:24;15.90;99.90
23087;DHT22;11712;51.134;4.156;2023-04-19T13:33:51;15.80;99.90
23087;DHT22;11712;51.134;4.156;2023-04-19T13:36:17;15.70;99.90
23087;DHT22;11712;51.134;4.156;2023-04-19T13:38:42;15.80;99.90
23087;DHT22;11712;51.134;4.156;2023-04-19T13:41:08;15.90;99.90
23087;DHT22;11712;51.134;4.156;2023-04-19T13:43:34;15.90;99.90
23087;DHT22;11712;51.134;4.156;2023-04-19T13:45:59;16.00;99.90
23087;DHT22;11712;51.134;4.156;2023-04-19T13:48:25;16.00;99.90
23087;DHT22;11712;51.134;4.156;2023-04-19T13:50:56;15.90;99.90
23087;DHT22;11712;51.134;4.156;2023-04-19T13:53:22;15.90;99.90
23087;DHT22;11712;51.134;4.156;2023-04-19T13:55:48;15.90;99.90
23087;DHT22;11712;51.134;4.156;2023-04-19T13:58:14;16.00;99.90
23087;DHT22;11712;51.134;4.156;2023-04-19T14:00:39;16.00;99.90
23087;DHT22;11712;51.134;4.156;2023-04-19T14:03:05;15.90;99.90
23087;DHT22;11712;51.134;4.156;2023-04-19T14:05:31;15.90;99.90
23087;DHT22;11712;51.134;4.156;2023-04-19T14:07:56;15.90;99.90
23087;DHT22;11712;51.134;4.156;2023-04-19T14:10:22;16.00;99.90
23087;DHT22;11712;51.134;4.156;2023-04-19T14:12:47;16.00;99.90
23087;DHT22;11712;51.134;4.156;2023-04-19T14:15:15;16.20;99.90
23087;DHT22;11712;51.134;4.156;2023-04-19T14:17:40;16.00;99.90
23087;DHT22;11712;51.134;4.156;2023-04-19T14:20:06;15.80;98.80
23087;DHT22;11712;51.134;4.156;2023-04-19T14:22:31;16.00;99.90
23087;DHT22;11712;51.134;4.156;2023-04-19T14:24:57;16.10;99.70
23087;DHT22;11712;51.134;4.156;2023-04-19T14:27:24;16.30;98.80
23087;DHT22;11712;51.134;4.156;2023-04-19T14:29:50;16.50;99.90
23087;DHT22;11712;51.134;4.156;2023-04-19T14:32:16;16.30;99.90
23087;DHT22;11712;51.134;4.156;2023-04-19T14:34:41;16.10;99.90
23087;DHT22;11712;51.134;4.156;2023-04-19T14:37:07;16.30;99.90
23087;DHT22;11712;51.134;4.156;2023-04-19T14:39:33;17.10;99.90
23087;DHT22;11712;51.134;4.156;2023-04-19T14:41:58;17.40;98.40
23087;DHT22;11712;51.134;4.156;2023-04-19T14:44:24;17.30;98.20
23087;DHT22;11712;51.134;4.156;2023-04-19T14:46:49;16.70;98.40
23087;DHT22;11712;51.134;4.156;2023-04-19T14:49:15;16.80;99.70
23087;DHT22;11712;51.134;4.156;2023-04-19T14:51:41;16.80;99.20
23087;DHT22;11712;51.134;4.156;2023-04-19T14:54:07;16.70;98.50
23087;DHT22;11712;51.134;4.156;2023-04-19T14:56:33;16.60;98.10
23087;DHT22;11712;51.134;4.156;2023-04-19T14:58:58;17.20;96.80
23087;DHT22;11712;51.134;4.156;2023-04-19T15:01:24;17.40;95.10
23087;DHT22;11712;51.134;4.156;2023-04-19T15:03:49;16.90;96.20
23087;DHT22;11712;51.134;4.156;2023-04-19T15:06:15;17.00;95.70
23087;DHT22;11712;51.134;4.156;2023-04-19T15:08:41;17.20;95.70
23087;DHT22;11712;51.134;4.156;2023-04-19T15:11:07;17.10;93.90
23087;DHT22;11712;51.134;4.156;2023-04-19T15:13:33;17.30;93.60
23087;DHT22;11712;51.134;4.156;2023-04-19T15:16:00;17.60;93.60
23087;DHT22;11712;51.134;4.156;2023-04-19T15:18:26;17.60;92.60
23087;DHT22;11712;51.134;4.156;2023-04-19T15:20:51;17.80;92.30
23087;DHT22;11712;51.134;4.156;2023-04-19T15:23:17;17.60;92.40
23087;DHT22;11712;51.134;4.156;2023-04-19T15:25:42;17.90;93.50
23087;DHT22;11712;51.134;4.156;2023-04-19T15:28:08;17.90;93.40
23087;DHT22;11712;51.134;4.156;2023-04-19T15:30:34;17.50;93.10